Flight Track Log - Related Links

Times and Time Zones

All times are in EDT time to prevent confusion due to time zone crossing. See the SWA1725 flight status page for this flight to view local times or setup timezone preferences in your user account.

Time Position Orientation Groundspeed Altitude Reporting Facility
EDT Latitude Longitude Course Direction KTS MPH feet Rate Location/Type
Sun 12:48:48 PM 32.7667 -117.2500 320° Northwest 202 232 2,600  Level Southern California TRACON
Sun 12:49:12 PM 32.7686 -117.2650 279° West 192 221 3,500 2,233 Climbing Los Angeles Center
Sun 12:50:14 PM 32.8142 -117.3406 306° West 266 306 5,800 3,435 Climbing Los Angeles Center
Sun 12:51:16 PM 32.8578 -117.4222 302° West 289 333 10,600 3,629 Climbing Los Angeles Center
Sun 12:52:18 PM 32.9136 -117.5033 309° West 313 360 13,300 3,000 Climbing Los Angeles Center
Sun 12:53:20 PM 33.0000 -117.5636 330° Northwest 356 410 16,800 3,290 Climbing Los Angeles Center
Sun 12:54:00 PM 33.1212 -117.7378 320° Northwest  Level FlightAware Approximate
Sun 12:54:22 PM 33.0669 -117.6589 310° West 375 432 20,100  Level Los Angeles Center
Sun 12:55:24 PM 33.1467 -117.7803 308° West 387 445 23,500 3,000 Climbing Los Angeles Center
Sun 12:56:26 PM 33.2089 -117.8919 304° West 400 460 26,300 2,496 Climbing Los Angeles Center
Sun 12:57:29 PM 33.2817 -117.9978 309° West 409 471 28,700 2,016 Climbing Los Angeles Center
Sun 12:58:31 PM 33.3581 -118.1044 311° West 418 481 30,500 2,032 Climbing Los Angeles Center
Sun 12:59:33 PM 33.4344 -118.2144 310° West 427 491 32,900 2,226 Climbing Los Angeles Center
Sun 01:00:35 PM 33.5100 -118.3222 310° West 422 486 35,100 2,032 Climbing Los Angeles Center
Sun 01:01:37 PM 33.5858 -118.4311 310° West 420 483 37,100 1,839 Climbing Los Angeles Center
Sun 01:02:39 PM 33.6767 -118.5608 310° West 416 479 38,900 1,403 Climbing Los Angeles Center
Sun 01:03:41 PM 33.7506 -118.6664 310° West 410 472 40,000 532 Climbing Los Angeles Center
Sun 01:04:43 PM 33.8222 -118.7681 310° West 400 460 40,000  Level Los Angeles Center
Sun 01:05:45 PM 33.9042 -118.8633 316° Northwest 408 470 40,000  Level Los Angeles Center
Sun 01:06:47 PM 33.9844 -118.9575 316° Northwest 403 464 40,000  Level Los Angeles Center
Sun 01:07:49 PM 34.0636 -119.0511 316° Northwest 401 461 40,000  Level Los Angeles Center
Sun 01:08:51 PM 34.1436 -119.1456 316° Northwest 402 463 40,000  Level Los Angeles Center
Sun 01:09:54 PM 34.2383 -119.2567 316° Northwest 397 457 40,000  Level Los Angeles Center
Sun 01:10:55 PM 34.3014 -119.3311 316° Northwest 397 457 40,000  Level Los Angeles Center
Sun 01:11:58 PM 34.3950 -119.4450 315° West 398 458 40,000  Level Los Angeles Center
Sun 01:13:00 PM 34.4742 -119.5394 315° West 399 459 40,000  Level Los Angeles Center
Sun 01:14:02 PM 34.5544 -119.6339 316° Northwest 401 461 40,000  Level Los Angeles Center
Sun 01:15:04 PM 34.6469 -119.7447 315° West 403 464 40,000  Level Los Angeles Center
Sun 01:16:06 PM 34.7261 -119.8400 315° West 402 463 40,000  Level Los Angeles Center
Sun 01:17:08 PM 34.8064 -119.9356 316° Northwest 403 464 40,000  Level Los Angeles Center
Sun 01:18:10 PM 34.8856 -120.0319 315° West 402 463 40,000  Level Los Angeles Center
Sun 01:19:12 PM 34.9606 -120.1228 315° West 402 463 40,000  Level Los Angeles Center
Sun 01:20:14 PM 35.0558 -120.2383 315° West 405 466 40,000  Level Los Angeles Center
Sun 01:21:16 PM 35.1350 -120.3347 315° West 405 466 40,000  Level Los Angeles Center
Sun 01:22:19 PM 35.2136 -120.4319 315° West 405 466 40,000  Level Los Angeles Center
Sun 01:23:21 PM 35.2942 -120.5289 316° Northwest 409 471 40,000  Level Los Angeles Center
Sun 01:24:23 PM 35.3722 -120.6272 314° West 407 468 40,000  Level Los Angeles Center
Sun 01:25:25 PM 35.4764 -120.7350 320° Northwest 410 472 40,000  Level Los Angeles Center
Sun 01:26:27 PM 35.5667 -120.8203 322° Northwest 411 473 40,000  Level Los Angeles Center
Sun 01:27:29 PM 35.6536 -120.9028 322° Northwest 408 470 40,000  Level Los Angeles Center
Sun 01:28:31 PM 35.7431 -120.9894 322° Northwest 408 470 40,000  Level Los Angeles Center
Sun 01:29:33 PM 35.8525 -121.0933 322° Northwest 411 473 40,000 -366 Level Los Angeles Center
Sun 01:30:42 PM 35.9411 -121.1797 322° Northwest 411 473 39,200 -1,108 Descending Oakland Center
Sun 01:31:43 PM 36.0306 -121.2667 322° Northwest 408 470 37,600 -2,410 Descending Oakland Center
Sun 01:32:44 PM 36.1414 -121.3717 323° Northwest 416 479 34,300 -2,976 Descending Oakland Center
Sun 01:33:46 PM 36.2325 -121.4592 322° Northwest 414 476 31,500 -2,537 Descending Oakland Center
Sun 01:34:47 PM 36.3219 -121.5472 322° Northwest 408 470 29,100 -2,311 Descending Oakland Center
Sun 01:35:48 PM 36.4114 -121.6353 322° Northwest 408 470 26,800 -2,293 Descending Oakland Center
Sun 01:36:50 PM 36.4997 -121.7239 321° Northwest 404 465 24,400 -2,400 Descending Oakland Center
Sun 01:37:28 PM 36.5667 -121.7833 325° Northwest 391 450 22,800 -2,327 Descending Northern Cal TRACON
Sun 01:38:28 PM 36.6500 -121.8667 321° Northwest 377 434 20,600 -2,000 Descending Northern Cal TRACON
Sun 01:39:28 PM 36.7333 -121.9500 321° Northwest 369 425 18,800 -1,900 Descending Northern Cal TRACON
Sun 01:40:28 PM 36.8167 -121.9833 342° North 352 405 16,800 -2,050 Descending Northern Cal TRACON
Sun 01:41:28 PM 36.9167 -122.0000 352° North 342 394 14,700 -2,022 Descending Northern Cal TRACON
Sun 01:41:57 PM 36.9453 -122.0158 336° Northwest 338 389 13,800 -1,933 Descending Oakland Center
Sun 01:42:58 PM 37.0347 -122.0397 348° North 329 379 11,800 -1,756 Descending Oakland Center
Sun 01:44:00 PM 37.1217 -122.0614 349° North 319 367 10,200 -1,171 Descending Oakland Center
Sun 01:45:01 PM 37.1967 -122.0817 348° North 281 323 9,400 -1,033 Descending Oakland Center
Sun 01:46:02 PM 37.2681 -122.1008 348° North 265 305 8,100 -976 Descending Oakland Center
Sun 01:47:04 PM 37.3439 -122.1208 348° North 229 264 7,400 -780 Descending Oakland Center
Sun 01:48:05 PM 37.3975 -122.1353 348° North 199 229 6,500 -1,082 Descending Oakland Center
Sun 01:49:06 PM 37.4486 -122.1369 359° North 189 217 5,200 -1,171 Descending Oakland Center
Sun 01:50:08 PM 37.4989 -122.1411 356° North 188 216 4,100 -976 Descending Oakland Center
Sun 01:51:09 PM 37.5361 -122.1825 319° Northwest 183 211 3,200 -1,024 Descending Oakland Center
Sun 01:52:11 PM 37.5603 -122.2347 300° West 176 203 2,000 -1,024 Descending Oakland Center
Sun 01:53:12 PM 37.5814 -122.2883 296° West 173 199 1,100 -780 Descending Oakland Center
Sun 01:54:14 PM 37.5994 -122.3331 297° West 159 183 400 -488 Descending Oakland Center
Sun 01:55:15 PM 37.6189 -122.3833 296° West 152 175 100 -295 Descending Oakland Center
Sun 01:57:00 PM 37.6167 -122.3667 322° Northwest  Level FlightAware Approximate

Login

Don't have an account? Register now (free) for customized features, flight alerts, and more!